createdAt,value
2019-04-14T00:00:38.975Z,92.40
2019-04-14T00:03:19.299Z,92.50
2019-04-14T00:05:52.272Z,92.50
2019-04-14T00:08:24.059Z,92.30
2019-04-14T00:10:55.084Z,92.70
2019-04-14T00:13:26.494Z,92.60
2019-04-14T00:15:57.151Z,92.50
2019-04-14T00:18:29.441Z,92.70
2019-04-14T00:21:00.270Z,92.90
2019-04-14T00:23:32.651Z,93.00
2019-04-14T00:26:31.946Z,92.80
2019-04-14T00:29:04.459Z,93.00
2019-04-14T00:31:37.024Z,93.60
2019-04-14T00:34:31.012Z,93.70
2019-04-14T00:37:20.548Z,93.20
2019-04-14T00:39:53.288Z,93.40
2019-04-14T00:42:43.044Z,93.40
2019-04-14T00:45:34.025Z,93.40
2019-04-14T00:48:11.811Z,93.50
2019-04-14T00:50:40.913Z,94.10
2019-04-14T00:53:12.069Z,93.90
2019-04-14T00:55:42.969Z,94.00
2019-04-14T00:58:13.509Z,93.80
2019-04-14T01:00:45.159Z,93.90
2019-04-14T01:03:15.812Z,93.50
2019-04-14T01:05:48.112Z,93.40
2019-04-14T01:08:18.904Z,93.60
2019-04-14T01:10:49.829Z,93.10
2019-04-14T01:13:20.536Z,93.10
2019-04-14T01:15:58.676Z,93.40
2019-04-14T01:18:25.421Z,93.80
2019-04-14T01:20:56.035Z,93.60
2019-04-14T01:23:28.297Z,93.80
2019-04-14T01:25:59.001Z,94.40
2019-04-14T01:28:30.713Z,94.70
2019-04-14T01:31:01.280Z,95.00
2019-04-14T01:33:31.747Z,94.80
2019-04-14T01:36:02.429Z,95.40
2019-04-14T01:38:34.242Z,94.90
2019-04-14T01:41:04.821Z,95.50
2019-04-14T01:43:36.389Z,95.40
2019-04-14T01:46:14.604Z,95.80
2019-04-14T01:48:39.308Z,95.90
2019-04-14T01:51:46.902Z,95.80
2019-04-14T01:54:36.661Z,95.70
2019-04-14T01:57:26.347Z,95.20
2019-04-14T01:59:58.882Z,95.70
2019-04-14T02:02:29.624Z,96.10
2019-04-14T02:05:00.084Z,96.20
2019-04-14T02:07:31.901Z,96.40
2019-04-14T02:10:03.914Z,96.50
2019-04-14T02:12:34.556Z,96.50
2019-04-14T02:15:05.353Z,97.10
2019-04-14T02:17:37.022Z,97.60
2019-04-14T02:20:09.929Z,97.20
2019-04-14T02:22:41.872Z,97.20
2019-04-14T02:25:12.614Z,96.90
2019-04-14T02:27:43.451Z,97.10
2019-04-14T02:30:19.548Z,97.20
2019-04-14T02:33:13.599Z,97.10
2019-04-14T02:35:45.479Z,97.10
2019-04-14T02:38:23.332Z,97.40
2019-04-14T02:40:55.559Z,97.50
2019-04-14T02:43:41.671Z,97.70
2019-04-14T02:48:36.131Z,98.10
2019-04-14T02:51:01.943Z,98.60
2019-04-14T02:53:34.279Z,98.90
2019-04-14T02:56:11.543Z,98.70
2019-04-14T02:58:51.952Z,99.10
2019-04-14T03:01:14.642Z,98.80
2019-04-14T03:03:41.696Z,98.90
2019-04-14T03:11:21.220Z,99.10
2019-04-14T03:16:23.334Z,99.00
2019-04-14T03:19:19.766Z,98.90
2019-04-14T03:22:12.582Z,99.30
2019-04-14T03:24:37.547Z,99.40
2019-04-14T03:30:39.045Z,99.90
2019-04-14T03:35:58.819Z,99.60
2019-04-14T03:37:52.565Z,99.90
2019-04-14T03:40:28.036Z,99.90
2019-04-14T03:43:03.956Z,99.90
2019-04-14T03:45:39.434Z,99.90
2019-04-14T03:50:31.371Z,99.90
2019-04-14T03:53:15.869Z,99.90
2019-04-14T03:55:55.375Z,99.90
2019-04-14T03:58:22.611Z,99.90
2019-04-14T04:00:53.424Z,99.90
2019-04-14T04:03:23.980Z,99.90
2019-04-14T04:05:54.692Z,99.90
2019-04-14T04:08:25.315Z,99.90
2019-04-14T04:10:57.499Z,99.90
2019-04-14T04:13:28.152Z,99.90
2019-04-14T04:16:13.797Z,99.90
2019-04-14T04:18:56.219Z,99.90
2019-04-14T04:21:26.996Z,99.90
2019-04-14T04:24:02.142Z,99.90
2019-04-14T04:26:58.189Z,99.90
2019-04-14T04:29:48.443Z,99.90
2019-04-14T04:32:38.606Z,99.90
2019-04-14T04:35:13.148Z,99.90
2019-04-14T04:38:11.787Z,99.90
2019-04-14T04:40:42.478Z,99.90
2019-04-14T04:43:12.973Z,99.90
2019-04-14T04:45:43.427Z,99.90
2019-04-14T04:48:17.311Z,99.90
2019-04-14T04:50:47.908Z,99.90
2019-04-14T04:53:18.437Z,99.90
2019-04-14T04:55:48.891Z,99.90
2019-04-14T04:58:19.583Z,99.90
2019-04-14T05:00:52.513Z,99.90
2019-04-14T05:03:23.323Z,99.90
2019-04-14T05:06:48.339Z,99.90
2019-04-14T05:09:56.143Z,99.90
2019-04-14T05:12:41.326Z,99.90
2019-04-14T05:15:40.284Z,99.90
2019-04-14T05:18:33.588Z,99.90
2019-04-14T05:21:04.030Z,99.90
2019-04-14T05:23:34.435Z,99.90
2019-04-14T05:26:05.140Z,99.90
2019-04-14T05:28:35.591Z,99.90
2019-04-14T05:31:06.064Z,99.90
2019-04-14T05:33:36.488Z,99.90
2019-04-14T05:36:06.988Z,99.90
2019-04-14T05:38:38.522Z,99.90
2019-04-14T05:41:09.341Z,99.90
2019-04-14T05:43:47.078Z,99.90
2019-04-14T05:46:12.141Z,99.30
2019-04-14T05:48:42.664Z,99.80
2019-04-14T05:51:13.177Z,99.80
2019-04-14T05:53:43.867Z,99.90
2019-04-14T05:56:14.597Z,99.90
2019-04-14T05:58:45.062Z,99.90
2019-04-14T06:01:16.121Z,99.90
2019-04-14T06:03:47.498Z,99.90
2019-04-14T06:06:18.179Z,99.90
2019-04-14T06:08:48.682Z,99.90
2019-04-14T06:11:19.213Z,99.80
2019-04-14T06:13:49.637Z,99.50
2019-04-14T06:16:20.257Z,99.50
2019-04-14T06:18:50.745Z,99.80
2019-04-14T06:21:21.212Z,99.50
2019-04-14T06:23:51.674Z,98.80
2019-04-14T06:26:22.386Z,98.20
2019-04-14T06:28:52.998Z,97.60
2019-04-14T06:31:51.579Z,96.20
2019-04-14T06:34:40.911Z,94.00
2019-04-14T06:37:24.435Z,86.70
2019-04-14T06:39:54.917Z,79.70
2019-04-14T06:42:25.593Z,71.50
2019-04-14T06:44:56.044Z,66.00
2019-04-14T06:47:26.576Z,64.40
2019-04-14T06:49:57.046Z,59.60
2019-04-14T06:52:27.660Z,56.70
2019-04-14T06:54:58.423Z,53.50
2019-04-14T06:57:29.102Z,52.90
2019-04-14T06:59:59.586Z,51.80
2019-04-14T07:02:30.360Z,52.90
2019-04-14T07:05:00.867Z,51.60
2019-04-14T07:07:31.611Z,53.30
2019-04-14T07:10:02.197Z,51.20
2019-04-14T07:12:33.003Z,50.80
2019-04-14T07:15:03.698Z,49.80
2019-04-14T07:17:34.517Z,51.70
2019-04-14T07:20:06.194Z,51.50
2019-04-14T07:22:36.744Z,49.40
2019-04-14T07:25:07.333Z,45.10
2019-04-14T07:27:37.819Z,46.80
2019-04-14T07:30:46.761Z,46.70
2019-04-14T07:33:36.394Z,47.10
2019-04-14T07:36:31.911Z,45.30
2019-04-14T07:39:19.969Z,45.20
2019-04-14T07:42:21.567Z,44.30
2019-04-14T07:45:11.039Z,46.50
2019-04-14T07:48:15.717Z,47.70
2019-04-14T07:51:14.435Z,47.00
2019-04-14T07:53:54.592Z,48.10
2019-04-14T07:56:46.829Z,48.40
2019-04-14T07:59:29.107Z,49.30
2019-04-14T08:02:21.618Z,49.60
2019-04-14T08:05:00.213Z,50.30
2019-04-14T08:07:30.740Z,49.40
2019-04-14T08:10:01.397Z,50.60
2019-04-14T08:12:31.923Z,50.60
2019-04-14T08:15:02.420Z,50.00
2019-04-14T08:17:32.975Z,51.10
2019-04-14T08:20:11.908Z,49.20
2019-04-14T08:22:53.435Z,50.90
2019-04-14T08:25:23.950Z,51.50
2019-04-14T08:27:54.421Z,50.90
2019-04-14T08:30:24.998Z,49.60
2019-04-14T08:32:55.761Z,46.60
2019-04-14T08:35:26.599Z,48.50
2019-04-14T08:37:57.666Z,47.50
2019-04-14T08:40:28.378Z,49.30
2019-04-14T08:43:11.410Z,44.50
2019-04-14T08:46:03.635Z,44.80
2019-04-14T08:48:51.587Z,45.40
2019-04-14T08:51:38.666Z,44.10
2019-04-14T08:54:28.083Z,35.70
2019-04-14T08:57:07.471Z,34.10
2019-04-14T08:59:57.566Z,33.00
2019-04-14T09:02:44.486Z,33.50
2019-04-14T09:05:35.319Z,30.80
2019-04-14T09:08:28.310Z,27.10
2019-04-14T09:11:00.979Z,26.70
2019-04-14T09:13:31.869Z,26.70
2019-04-14T09:16:02.695Z,24.50
2019-04-14T09:18:33.534Z,25.00
2019-04-14T09:21:04.873Z,24.90
2019-04-14T09:23:36.216Z,27.00
2019-04-14T09:26:06.678Z,26.80
2019-04-14T09:28:37.208Z,23.70
2019-04-14T09:31:07.767Z,24.10
2019-04-14T09:33:40.233Z,23.20
2019-04-14T09:36:10.775Z,23.50
2019-04-14T09:38:41.216Z,21.90
2019-04-14T09:41:12.011Z,22.30
2019-04-14T09:43:42.955Z,23.70
2019-04-14T09:46:13.472Z,24.00
2019-04-14T09:48:44.058Z,21.50
2019-04-14T09:51:15.000Z,23.30
2019-04-14T09:53:45.784Z,21.80
2019-04-14T09:56:16.604Z,21.50
2019-04-14T09:58:47.331Z,22.30
2019-04-14T10:01:18.479Z,20.90
2019-04-14T10:03:49.242Z,20.60
2019-04-14T10:06:19.805Z,22.00
2019-04-14T10:08:50.730Z,21.80
2019-04-14T10:11:21.299Z,22.90
2019-04-14T10:13:51.888Z,25.80
2019-04-14T10:16:22.483Z,24.10
2019-04-14T10:18:52.966Z,22.50
2019-04-14T10:21:23.455Z,22.70
2019-04-14T10:23:54.158Z,22.40
2019-04-14T10:26:24.813Z,22.00
2019-04-14T10:28:55.255Z,23.80
2019-04-14T10:31:25.847Z,24.30
2019-04-14T10:33:56.378Z,24.50
2019-04-14T10:36:26.886Z,23.10
2019-04-14T10:38:57.413Z,22.30
2019-04-14T10:41:27.969Z,21.00
2019-04-14T10:43:58.606Z,20.20
2019-04-14T10:46:29.243Z,18.80
2019-04-14T10:48:59.935Z,19.90
2019-04-14T10:51:33.849Z,20.30
2019-04-14T10:54:02.659Z,20.50
2019-04-14T10:56:33.241Z,20.60
2019-04-14T10:59:03.885Z,22.90
2019-04-14T11:01:34.889Z,25.20
2019-04-14T11:04:08.004Z,25.30
2019-04-14T11:06:41.519Z,25.50
2019-04-14T11:09:15.222Z,25.30
2019-04-14T11:11:46.585Z,24.60
2019-04-14T11:14:17.025Z,25.40
2019-04-14T11:16:47.505Z,26.00
2019-04-14T11:19:18.162Z,26.30
2019-04-14T11:21:48.690Z,25.40
2019-04-14T11:24:19.179Z,26.40
2019-04-14T11:26:49.736Z,27.10
2019-04-14T11:29:20.439Z,27.00
2019-04-14T11:32:11.488Z,27.40
2019-04-14T11:35:06.889Z,28.00
2019-04-14T11:38:02.102Z,28.10
2019-04-14T11:40:36.408Z,29.30
2019-04-14T11:43:07.142Z,29.70
2019-04-14T11:45:39.001Z,30.30
2019-04-14T11:48:09.566Z,30.50
2019-04-14T11:50:40.091Z,31.30
2019-04-14T11:53:12.245Z,31.90
2019-04-14T11:55:42.705Z,32.30
2019-04-14T11:58:13.178Z,32.60
2019-04-14T12:01:02.316Z,29.80
2019-04-14T12:03:43.931Z,30.20
2019-04-14T12:06:42.475Z,30.20
2019-04-14T12:09:40.948Z,30.10
2019-04-14T12:12:11.652Z,32.40
2019-04-14T12:14:42.375Z,34.50
2019-04-14T12:17:12.976Z,31.80
2019-04-14T12:19:43.715Z,32.20
2019-04-14T12:22:14.454Z,29.80
2019-04-14T12:24:45.087Z,29.00
2019-04-14T12:27:15.709Z,30.00
2019-04-14T12:29:47.946Z,29.80
2019-04-14T12:32:19.822Z,31.10
2019-04-14T12:34:50.884Z,29.70
2019-04-14T12:37:21.713Z,28.70
2019-04-14T12:39:52.423Z,29.60
2019-04-14T12:42:54.395Z,29.80
2019-04-14T12:45:52.699Z,29.30
2019-04-14T12:48:39.813Z,30.90
2019-04-14T12:51:20.505Z,32.40
2019-04-14T12:53:51.468Z,31.60
2019-04-14T12:56:25.720Z,32.50
2019-04-14T12:59:18.215Z,33.50
2019-04-14T13:01:56.306Z,31.90
2019-04-14T13:04:27.096Z,32.00
2019-04-14T13:06:58.115Z,32.20
2019-04-14T13:09:28.812Z,32.60
2019-04-14T13:11:59.568Z,33.20
2019-04-14T13:14:30.080Z,32.40
2019-04-14T13:17:00.575Z,32.50
2019-04-14T13:19:31.136Z,33.90
2019-04-14T13:22:01.736Z,32.50
2019-04-14T13:24:32.802Z,32.80
2019-04-14T13:27:03.398Z,33.60
2019-04-14T13:29:36.871Z,34.30
2019-04-14T13:32:07.670Z,35.10
2019-04-14T13:34:38.718Z,34.60
2019-04-14T13:37:09.150Z,34.50
2019-04-14T13:39:39.648Z,35.00
2019-04-14T13:42:10.298Z,34.40
2019-04-14T13:44:40.828Z,35.70
2019-04-14T13:47:11.374Z,34.00
2019-04-14T13:49:42.149Z,34.00
2019-04-14T13:52:12.730Z,34.20
2019-04-14T13:54:43.247Z,34.50
2019-04-14T13:57:13.779Z,34.80
2019-04-14T13:59:44.277Z,34.10
2019-04-14T14:02:14.760Z,34.60
2019-04-14T14:04:45.277Z,34.70
2019-04-14T14:07:15.734Z,34.20
2019-04-14T14:09:46.241Z,34.30
2019-04-14T14:12:33.990Z,35.00
2019-04-14T14:15:32.617Z,35.00
2019-04-14T14:18:34.096Z,34.80
2019-04-14T14:21:23.570Z,34.70
2019-04-14T14:24:01.045Z,35.20
2019-04-14T14:26:32.862Z,34.20
2019-04-14T14:29:03.348Z,34.20
2019-04-14T14:31:33.972Z,35.70
2019-04-14T14:34:04.779Z,35.30
2019-04-14T14:36:35.245Z,34.40
2019-04-14T14:39:08.803Z,34.00
2019-04-14T14:41:39.466Z,34.10
2019-04-14T14:44:09.994Z,34.10
2019-04-14T14:47:02.179Z,35.00
2019-04-14T14:49:51.555Z,34.80
2019-04-14T14:52:22.840Z,34.40
2019-04-14T14:54:53.326Z,34.10
2019-04-14T14:57:24.169Z,34.10
2019-04-14T14:59:55.728Z,34.10
2019-04-14T15:02:26.479Z,33.50
2019-04-14T15:04:57.007Z,33.90
2019-04-14T15:07:27.545Z,34.70
2019-04-14T15:09:58.020Z,35.50
2019-04-14T15:12:28.868Z,34.30
2019-04-14T15:14:59.346Z,34.80
2019-04-14T15:17:30.032Z,35.30
2019-04-14T15:20:00.738Z,35.30
2019-04-14T15:22:31.226Z,35.70
2019-04-14T15:25:01.982Z,35.30
2019-04-14T15:27:32.695Z,35.00
2019-04-14T15:30:04.150Z,35.20
2019-04-14T15:32:34.687Z,35.80
2019-04-14T15:35:05.493Z,34.80
2019-04-14T15:37:36.243Z,35.20
2019-04-14T15:40:07.819Z,35.10
2019-04-14T15:42:38.487Z,35.30
2019-04-14T15:45:10.159Z,35.50
2019-04-14T15:47:40.894Z,36.00
2019-04-14T15:50:11.523Z,36.40
2019-04-14T15:52:42.080Z,37.00
2019-04-14T15:55:14.994Z,36.90
2019-04-14T15:57:57.396Z,37.30
2019-04-14T16:00:47.050Z,35.90
2019-04-14T16:03:36.576Z,36.70
2019-04-14T16:06:28.703Z,36.30
2019-04-14T16:09:18.022Z,36.50
2019-04-14T16:11:57.110Z,36.40
2019-04-14T16:15:05.037Z,36.30
2019-04-14T16:17:57.487Z,37.20
2019-04-14T16:20:33.165Z,36.70
2019-04-14T16:23:03.682Z,37.80
2019-04-14T16:25:59.224Z,38.20
2019-04-14T16:28:37.974Z,39.10
2019-04-14T16:31:34.007Z,39.30
2019-04-14T16:34:26.386Z,38.50
2019-04-14T16:36:57.657Z,38.90
2019-04-14T16:39:28.239Z,38.80
2019-04-14T16:41:58.754Z,39.50
2019-04-14T16:44:29.400Z,40.40
2019-04-14T16:47:00.004Z,40.80
2019-04-14T16:49:30.525Z,41.00
2019-04-14T16:52:06.317Z,41.30
2019-04-14T16:54:58.777Z,40.90
2019-04-14T16:57:48.376Z,42.10
2019-04-14T17:00:28.858Z,41.80
2019-04-14T17:02:59.517Z,42.20
2019-04-14T17:05:30.157Z,42.40
2019-04-14T17:08:00.891Z,42.80
2019-04-14T17:10:31.403Z,42.80
2019-04-14T17:13:02.068Z,43.40
2019-04-14T17:16:03.542Z,43.60
2019-04-14T17:18:47.902Z,43.80
2019-04-14T17:21:36.233Z,43.60
2019-04-14T17:24:24.539Z,43.60
2019-04-14T17:27:17.004Z,44.00
2019-04-14T17:30:06.603Z,44.60
2019-04-14T17:32:58.189Z,44.90
2019-04-14T17:35:40.351Z,45.60
2019-04-14T17:38:16.653Z,46.20
2019-04-14T17:41:02.464Z,46.70
2019-04-14T17:43:43.921Z,47.70
2019-04-14T17:46:33.649Z,47.80
2019-04-14T17:49:20.625Z,48.00
2019-04-14T17:52:10.315Z,48.30
2019-04-14T17:55:02.975Z,48.50
2019-04-14T17:57:49.815Z,49.00
2019-04-14T18:00:25.747Z,48.90
2019-04-14T18:03:02.380Z,49.20
2019-04-14T18:05:45.327Z,49.20
2019-04-14T18:08:32.722Z,49.20
2019-04-14T18:11:08.702Z,49.60
2019-04-14T18:13:59.369Z,50.20
2019-04-14T18:16:34.808Z,50.40
2019-04-14T18:19:12.539Z,50.40
2019-04-14T18:21:44.391Z,50.30
2019-04-14T18:24:15.211Z,50.90
2019-04-14T18:26:45.756Z,51.00
2019-04-14T18:29:44.652Z,51.00
2019-04-14T18:32:37.292Z,51.40
2019-04-14T18:35:14.647Z,52.00
2019-04-14T18:38:06.988Z,52.40
2019-04-14T18:40:49.646Z,52.40
2019-04-14T18:43:48.535Z,52.50
2019-04-14T18:46:29.685Z,52.70
2019-04-14T18:49:05.759Z,52.50
2019-04-14T18:51:40.887Z,52.90
2019-04-14T18:54:39.605Z,53.10
2019-04-14T18:57:14.766Z,53.00
2019-04-14T19:00:10.632Z,53.50
2019-04-14T19:02:41.215Z,53.50
2019-04-14T19:05:11.984Z,53.50
2019-04-14T19:07:42.569Z,53.60
2019-04-14T19:10:13.701Z,53.60
2019-04-14T19:12:56.251Z,53.70
2019-04-14T19:15:46.331Z,53.60
2019-04-14T19:18:38.429Z,53.90
2019-04-14T19:21:12.001Z,54.20
2019-04-14T19:23:42.589Z,54.10
2019-04-14T19:26:13.184Z,54.20
2019-04-14T19:28:43.677Z,54.40
2019-04-14T19:31:14.802Z,54.60
2019-04-14T19:33:45.727Z,54.50
2019-04-14T19:36:16.264Z,54.60
2019-04-14T19:38:46.934Z,55.70
2019-04-14T19:41:17.658Z,56.10
2019-04-14T19:43:48.121Z,55.90
2019-04-14T19:46:19.058Z,55.90
2019-04-14T19:48:49.701Z,56.20
2019-04-14T19:51:20.215Z,55.90
2019-04-14T19:53:51.000Z,56.50
2019-04-14T19:56:21.639Z,56.80
2019-04-14T19:58:52.210Z,56.70
2019-04-14T20:01:22.889Z,57.20
2019-04-14T20:03:54.200Z,57.40
2019-04-14T20:06:25.761Z,57.40
2019-04-14T20:08:56.441Z,57.80
2019-04-14T20:11:27.323Z,58.50
2019-04-14T20:13:58.043Z,57.60
2019-04-14T20:16:59.722Z,57.60
2019-04-14T20:19:46.641Z,57.90
2019-04-14T20:22:36.136Z,58.30
2019-04-14T20:25:18.589Z,58.40
2019-04-14T20:27:54.169Z,58.50
2019-04-14T20:30:35.234Z,59.20
2019-04-14T20:33:05.948Z,58.80
2019-04-14T20:35:37.024Z,58.80
2019-04-14T20:38:07.569Z,58.60
2019-04-14T20:40:38.095Z,59.20
2019-04-14T20:43:08.979Z,59.00
2019-04-14T20:45:39.527Z,59.00
2019-04-14T20:48:10.193Z,59.00
2019-04-14T20:50:40.867Z,59.00
2019-04-14T20:53:11.458Z,59.60
2019-04-14T20:55:47.405Z,59.70
2019-04-14T20:58:14.742Z,59.50
2019-04-14T21:00:45.250Z,59.90
2019-04-14T21:03:32.786Z,60.10
2019-04-14T21:06:27.984Z,60.80
2019-04-14T21:09:26.961Z,60.30
2019-04-14T21:12:22.392Z,60.30
2019-04-14T21:15:09.875Z,60.70
2019-04-14T21:17:54.102Z,61.50
2019-04-14T21:20:35.201Z,61.20
2019-04-14T21:23:20.130Z,61.90
2019-04-14T21:26:00.693Z,62.00
2019-04-14T21:28:47.768Z,61.90
2019-04-14T21:31:30.564Z,61.50
2019-04-14T21:34:14.876Z,61.70
2019-04-14T21:37:09.349Z,62.00
2019-04-14T21:39:58.820Z,62.20
2019-04-14T21:42:29.372Z,62.40
2019-04-14T21:45:00.361Z,63.70
2019-04-14T21:47:30.950Z,63.70
2019-04-14T21:50:01.842Z,63.70
2019-04-14T21:52:44.283Z,64.60
2019-04-14T21:55:15.662Z,65.00
2019-04-14T21:58:20.368Z,65.30
2019-04-14T22:01:53.398Z,65.40
2019-04-14T22:04:42.652Z,65.80
2019-04-14T22:07:41.090Z,65.90
2019-04-14T22:10:23.017Z,66.10
2019-04-14T22:12:53.449Z,66.60
2019-04-14T22:15:24.529Z,67.30
2019-04-14T22:17:55.804Z,67.50
2019-04-14T22:20:26.311Z,68.00
2019-04-14T22:22:56.978Z,68.60
2019-04-14T22:25:27.399Z,68.60
2019-04-14T22:27:57.910Z,69.10
2019-04-14T22:30:28.401Z,69.20
2019-04-14T22:32:59.051Z,69.80
2019-04-14T22:35:29.533Z,69.90
2019-04-14T22:38:00.008Z,70.40
2019-04-14T22:40:30.415Z,71.30
2019-04-14T22:43:05.159Z,72.20
2019-04-14T22:45:36.019Z,72.20
2019-04-14T22:48:06.600Z,72.30
2019-04-14T22:50:37.016Z,72.70
2019-04-14T22:53:07.531Z,73.60
2019-04-14T22:55:38.017Z,73.70
2019-04-14T22:58:08.552Z,73.50
2019-04-14T23:00:50.010Z,72.50
2019-04-14T23:03:39.047Z,72.80
2019-04-14T23:06:32.075Z,72.10
2019-04-14T23:09:21.954Z,71.60
2019-04-14T23:12:09.925Z,72.20
2019-04-14T23:15:02.287Z,70.80
2019-04-14T23:17:53.868Z,71.10
2019-04-14T23:20:27.564Z,70.90
2019-04-14T23:23:03.740Z,70.60
2019-04-14T23:25:36.187Z,71.00
2019-04-14T23:28:06.684Z,71.10
2019-04-14T23:30:37.124Z,71.30
2019-04-14T23:33:07.587Z,71.00
2019-04-14T23:35:38.036Z,71.00
2019-04-14T23:38:08.511Z,71.10
2019-04-14T23:40:38.981Z,72.40
2019-04-14T23:43:09.517Z,73.50
2019-04-14T23:45:39.997Z,73.90
2019-04-14T23:48:10.481Z,73.80
2019-04-14T23:50:40.877Z,73.40
2019-04-14T23:53:11.380Z,74.90
2019-04-14T23:55:41.907Z,77.40
2019-04-14T23:58:12.439Z,79.00
